createdAt,value
2022-12-03T00:00:47.920Z,98940.53
2022-12-03T00:03:14.985Z,98942.34
2022-12-03T00:05:48.518Z,98939.72
2022-12-03T00:08:16.688Z,98944.94
2022-12-03T00:10:43.623Z,98952.56
2022-12-03T00:13:10.501Z,98938.97
2022-12-03T00:15:37.442Z,98944.13
2022-12-03T00:18:04.518Z,98948.41
2022-12-03T00:20:31.408Z,98944.09
2022-12-03T00:22:58.300Z,98941.56
2022-12-03T00:25:25.217Z,98936.28
2022-12-03T00:27:52.174Z,98932.91
2022-12-03T00:30:19.109Z,98943.97
2022-12-03T00:32:46.013Z,98943.13
2022-12-03T00:35:13.014Z,98950.78
2022-12-03T00:37:39.908Z,98957.66
2022-12-03T00:40:07.459Z,98955.03
2022-12-03T00:42:34.493Z,98958.41
2022-12-03T00:45:01.471Z,98962.78
2022-12-03T00:47:28.363Z,98967.13
2022-12-03T00:49:55.297Z,98961.97
2022-12-03T00:52:22.222Z,98950.59
2022-12-03T00:54:49.350Z,98948.81
2022-12-03T00:57:16.347Z,98953.13
2022-12-03T00:59:43.253Z,98955.75
2022-12-03T01:02:10.433Z,98954.06
2022-12-03T01:04:37.681Z,98951.56
2022-12-03T01:07:04.949Z,98944.72
2022-12-03T01:09:32.345Z,98944.56
2022-12-03T01:11:59.526Z,98942.81
2022-12-03T01:14:26.673Z,98942.81
2022-12-03T01:16:53.619Z,98935.81
2022-12-03T01:19:20.508Z,98945.16
2022-12-03T01:21:49.520Z,98943.41
2022-12-03T01:24:17.299Z,98942.56
2022-12-03T01:26:44.550Z,98955.53
2022-12-03T01:29:11.433Z,98959.00
2022-12-03T01:31:57.093Z,98951.09
2022-12-03T01:34:23.992Z,98951.09
2022-12-03T01:36:52.655Z,98953.00
2022-12-03T01:39:20.053Z,98948.69
2022-12-03T01:41:49.369Z,98944.47
2022-12-03T01:44:24.119Z,98947.91
2022-12-03T01:46:53.313Z,98941.81
2022-12-03T01:49:35.143Z,98945.31
2022-12-03T01:52:02.151Z,98934.25
2022-12-03T01:54:38.286Z,98941.09
2022-12-03T01:57:13.737Z,98945.31
2022-12-03T01:59:40.778Z,98943.47
2022-12-03T02:02:29.971Z,98939.97
2022-12-03T02:04:58.078Z,98950.50
2022-12-03T02:07:33.554Z,98943.41
2022-12-03T02:10:02.975Z,98957.25
2022-12-03T02:12:37.790Z,98954.69
2022-12-03T02:15:07.482Z,98962.44
2022-12-03T02:17:34.791Z,98959.19
2022-12-03T02:20:04.440Z,98961.81
2022-12-03T02:22:37.160Z,98955.03
2022-12-03T02:25:19.449Z,98955.75
2022-12-03T02:27:48.170Z,98962.66
2022-12-03T02:30:19.275Z,98960.00
2022-12-03T02:32:47.144Z,98956.72
2022-12-03T02:35:19.681Z,98960.22
2022-12-03T02:37:50.108Z,98957.66
2022-12-03T02:40:24.961Z,98961.28
2022-12-03T02:42:56.524Z,98959.25
2022-12-03T02:45:36.973Z,98961.91
2022-12-03T02:48:12.011Z,98963.56
2022-12-03T02:50:46.182Z,98963.63
2022-12-03T02:53:17.885Z,98962.66
2022-12-03T02:55:45.525Z,98967.84
2022-12-03T02:58:12.991Z,98969.59
2022-12-03T03:00:40.651Z,98971.16
2022-12-03T03:03:08.760Z,98969.41
2022-12-03T03:05:37.943Z,98968.50
2022-12-03T03:08:05.698Z,98976.09
2022-12-03T03:10:35.363Z,98976.19
2022-12-03T03:13:06.542Z,98978.75
2022-12-03T03:15:35.984Z,98976.25
2022-12-03T03:18:03.287Z,98979.84
2022-12-03T03:20:30.321Z,98980.53
2022-12-03T03:23:06.301Z,98978.53
2022-12-03T03:25:33.871Z,98980.31
2022-12-03T03:28:00.820Z,98985.44
2022-12-03T03:30:27.988Z,98983.91
2022-12-03T03:32:55.047Z,98982.78
2022-12-03T03:35:23.916Z,98987.88
2022-12-03T03:37:52.497Z,98978.34
2022-12-03T03:40:21.252Z,98989.56
2022-12-03T03:42:49.036Z,98994.25
2022-12-03T03:45:16.707Z,98994.28
2022-12-03T03:47:44.290Z,98997.00
2022-12-03T03:50:12.935Z,99004.81
2022-12-03T03:52:41.296Z,99004.69
2022-12-03T03:55:10.540Z,99004.81
2022-12-03T03:57:38.527Z,99011.59
2022-12-03T04:00:08.319Z,99008.09
2022-12-03T04:02:36.558Z,99012.50
2022-12-03T04:05:03.994Z,99008.19
2022-12-03T04:07:30.975Z,99015.88
2022-12-03T04:09:57.905Z,99018.53
2022-12-03T04:12:44.014Z,99021.88
2022-12-03T04:15:10.973Z,99021.88
2022-12-03T04:17:37.956Z,99019.19
2022-12-03T04:20:05.529Z,99024.31
2022-12-03T04:22:41.606Z,99029.53
2022-12-03T04:25:28.957Z,99026.88
2022-12-03T04:28:14.426Z,99025.97
2022-12-03T04:30:41.329Z,99036.28
2022-12-03T04:33:26.960Z,99029.25
2022-12-03T04:35:53.926Z,99031.13
2022-12-03T04:38:20.922Z,99025.06
2022-12-03T04:41:06.268Z,99031.06
2022-12-03T04:43:34.768Z,99031.16
2022-12-03T04:46:02.484Z,99032.97
2022-12-03T04:48:29.913Z,99036.44
2022-12-03T04:50:56.787Z,99034.66
2022-12-03T04:53:23.624Z,99032.13
2022-12-03T04:55:50.590Z,99038.03
2022-12-03T04:58:17.573Z,99038.88
2022-12-03T05:00:44.557Z,99036.53
2022-12-03T05:03:11.501Z,99039.75
2022-12-03T05:05:38.449Z,99035.63
2022-12-03T05:08:05.722Z,99041.56
2022-12-03T05:10:32.740Z,99042.34
2022-12-03T05:12:59.580Z,99046.03
2022-12-03T05:15:26.446Z,99050.28
2022-12-03T05:17:53.350Z,99045.03
2022-12-03T05:20:38.698Z,99045.22
2022-12-03T05:23:05.782Z,99045.38
2022-12-03T05:25:32.805Z,99042.75
2022-12-03T05:27:59.755Z,99043.53
2022-12-03T05:30:26.818Z,99041.00
2022-12-03T05:32:54.070Z,99056.66
2022-12-03T05:35:20.984Z,99052.34
2022-12-03T05:37:47.902Z,99051.56
2022-12-03T05:40:15.310Z,99056.53
2022-12-03T05:42:54.119Z,99061.00
2022-12-03T05:45:32.441Z,99062.63
2022-12-03T05:48:00.874Z,99061.84
2022-12-03T05:50:30.814Z,99072.84
2022-12-03T05:52:58.558Z,99073.69
2022-12-03T05:55:26.503Z,99080.53
2022-12-03T05:57:53.395Z,99081.22
2022-12-03T06:00:23.927Z,99084.75
2022-12-03T06:02:51.382Z,99094.16
2022-12-03T06:05:22.206Z,99095.97
2022-12-03T06:07:50.613Z,99087.47
2022-12-03T06:10:20.955Z,99089.81
2022-12-03T06:12:47.989Z,99087.47
2022-12-03T06:15:15.256Z,99099.19
2022-12-03T06:17:42.228Z,99092.94
2022-12-03T06:20:13.643Z,99092.25
2022-12-03T06:22:40.641Z,99097.94
2022-12-03T06:25:08.329Z,99087.78
2022-12-03T06:27:35.194Z,99078.94
2022-12-03T06:30:02.577Z,99092.56
2022-12-03T06:32:29.466Z,99095.38
2022-12-03T06:34:56.676Z,99091.88
2022-12-03T06:37:23.640Z,99090.00
2022-12-03T06:39:50.498Z,99095.59
2022-12-03T06:42:17.428Z,99093.03
2022-12-03T06:44:44.387Z,99096.38
2022-12-03T06:47:11.349Z,99105.81
2022-12-03T06:49:38.220Z,99097.28
2022-12-03T06:52:05.845Z,99095.16
2022-12-03T06:54:32.776Z,99088.28
2022-12-03T06:57:00.431Z,99102.78
2022-12-03T06:59:27.432Z,99103.69
2022-12-03T07:01:54.355Z,99105.97
2022-12-03T07:04:21.285Z,99103.59
2022-12-03T07:06:48.212Z,99101.66
2022-12-03T07:09:17.113Z,99095.75
2022-12-03T07:11:44.016Z,99098.34
2022-12-03T07:14:13.797Z,99096.44
2022-12-03T07:16:43.484Z,99100.59
2022-12-03T07:19:11.119Z,99108.16
2022-12-03T07:21:38.579Z,99094.88
2022-12-03T07:24:06.246Z,99098.56
2022-12-03T07:26:33.216Z,99104.22
2022-12-03T07:29:00.342Z,99106.63
2022-12-03T07:31:27.434Z,99109.63
2022-12-03T07:33:55.041Z,99106.84
2022-12-03T07:36:22.315Z,99108.44
2022-12-03T07:38:49.279Z,99102.19
2022-12-03T07:41:16.172Z,99109.00
2022-12-03T07:43:44.881Z,99107.94
2022-12-03T07:46:11.964Z,99112.28
2022-12-03T07:48:38.960Z,99114.13
2022-12-03T07:51:06.039Z,99117.19
2022-12-03T07:53:32.970Z,99115.44
2022-12-03T07:55:59.944Z,99114.59
2022-12-03T07:58:26.852Z,99125.19
2022-12-03T08:00:53.811Z,99120.81
2022-12-03T08:03:20.765Z,99118.38
2022-12-03T08:05:47.796Z,99117.47
2022-12-03T08:08:15.092Z,99118.91
2022-12-03T08:10:42.224Z,99121.75
2022-12-03T08:13:15.122Z,99119.31
2022-12-03T08:15:42.537Z,99116.72
2022-12-03T08:18:18.618Z,99118.06
2022-12-03T08:20:48.240Z,99123.75
2022-12-03T08:23:24.018Z,99120.13
2022-12-03T08:25:52.137Z,99122.00
2022-12-03T08:28:20.492Z,99126.44
2022-12-03T08:30:59.263Z,99121.31
2022-12-03T08:33:35.492Z,99131.56
2022-12-03T08:36:13.916Z,99126.13
2022-12-03T08:38:41.302Z,99127.16
2022-12-03T08:41:14.662Z,99127.78
2022-12-03T08:43:43.951Z,99123.88
2022-12-03T08:46:18.695Z,99121.34
2022-12-03T08:48:49.054Z,99122.88
2022-12-03T08:51:22.903Z,99116.59
2022-12-03T08:53:58.129Z,99121.59
2022-12-03T08:56:30.312Z,99120.50
2022-12-03T08:59:15.703Z,99114.66
2022-12-03T09:01:44.347Z,99123.44
2022-12-03T09:04:45.514Z,99119.41
2022-12-03T09:07:12.568Z,99116.31
2022-12-03T09:09:39.458Z,99114.69
2022-12-03T09:12:06.658Z,99116.81
2022-12-03T09:14:33.521Z,99114.03
2022-12-03T09:17:00.552Z,99116.44
2022-12-03T09:19:31.044Z,99117.13
2022-12-03T09:21:58.151Z,99114.41
2022-12-03T09:24:25.226Z,99114.53
2022-12-03T09:26:52.106Z,99119.28
2022-12-03T09:29:19.100Z,99122.19
2022-12-03T09:31:46.099Z,99125.47
2022-12-03T09:34:13.115Z,99115.56
2022-12-03T09:36:40.767Z,99113.47
2022-12-03T09:39:07.728Z,99117.97
2022-12-03T09:41:34.813Z,99117.56
2022-12-03T09:44:04.369Z,99113.50
2022-12-03T10:17:13.186Z,99110.78
2022-12-03T10:19:40.565Z,99099.06
2022-12-03T10:22:07.421Z,99110.19
2022-12-03T10:24:36.131Z,99105.34
2022-12-03T10:27:22.810Z,99097.16
2022-12-03T10:29:57.728Z,99107.03
2022-12-03T10:32:40.122Z,99111.53
2022-12-03T10:35:14.248Z,99100.06
2022-12-03T10:38:05.154Z,99094.06
2022-12-03T10:40:37.057Z,99092.22
2022-12-03T10:43:19.005Z,99093.56
2022-12-03T10:45:50.533Z,99094.41
2022-12-03T10:48:20.291Z,99095.25
2022-12-03T10:50:52.811Z,99087.69
2022-12-03T10:53:22.322Z,99087.91
2022-12-03T10:55:52.809Z,99091.41
2022-12-03T10:58:26.203Z,99091.41
2022-12-03T11:00:55.741Z,99082.91
2022-12-03T11:03:28.039Z,99086.91
2022-12-03T11:05:57.178Z,99087.38
2022-12-03T11:08:36.583Z,99079.56
2022-12-03T11:11:09.114Z,99086.13
2022-12-03T11:13:35.970Z,99089.22
2022-12-03T11:16:05.773Z,99090.97
2022-12-03T11:18:38.865Z,99102.97
2022-12-03T11:21:14.644Z,99096.13
2022-12-03T11:23:47.863Z,99101.28
2022-12-03T11:26:27.154Z,99096.16
2022-12-03T11:28:56.482Z,99089.91
2022-12-03T11:31:47.422Z,99092.06
2022-12-03T11:34:23.334Z,99093.97
2022-12-03T11:37:11.803Z,99093.00
2022-12-03T11:39:44.996Z,99088.22
2022-12-03T11:42:26.857Z,99086.53
2022-12-03T11:45:02.902Z,99092.09
2022-12-03T11:47:34.760Z,99096.75
2022-12-03T11:50:02.153Z,99088.59
2022-12-03T11:52:40.227Z,99084.25
2022-12-03T11:55:38.496Z,99083.13
2022-12-03T11:58:15.356Z,99083.53
2022-12-03T12:01:00.230Z,99074.97
2022-12-03T12:03:33.396Z,99077.28
2022-12-03T12:06:09.049Z,99070.53
2022-12-03T12:08:42.561Z,99075.09
2022-12-03T12:11:18.406Z,99077.69
2022-12-03T12:13:45.442Z,99077.69
2022-12-03T12:16:12.384Z,99085.09
2022-12-03T12:18:53.743Z,99075.38
2022-12-03T12:21:43.848Z,99081.66
2022-12-03T12:24:29.633Z,99084.03
2022-12-03T12:27:02.271Z,99075.53
2022-12-03T12:29:29.339Z,99073.09
2022-12-03T12:32:17.271Z,99082.06
2022-12-03T12:34:49.535Z,99076.38
2022-12-03T12:37:38.903Z,99080.47
2022-12-03T12:40:17.775Z,99082.06
2022-12-03T12:42:52.729Z,99093.56
2022-12-03T12:45:21.408Z,99093.28
2022-12-03T12:48:24.805Z,99084.16
2022-12-03T12:51:22.157Z,99095.34
2022-12-03T12:53:50.057Z,99109.28
2022-12-03T12:56:31.135Z,99102.97
2022-12-03T12:59:09.475Z,99109.63
2022-12-03T13:01:36.703Z,99108.22
2022-12-03T13:04:14.469Z,99111.81
2022-12-03T13:06:42.237Z,99112.84
2022-12-03T13:09:23.471Z,99118.25
2022-12-03T13:11:57.563Z,99120.06
2022-12-03T13:14:29.921Z,99122.03
2022-12-03T13:16:59.143Z,99120.19
2022-12-03T13:19:28.720Z,99122.59
2022-12-03T13:22:02.160Z,99137.28
2022-12-03T13:24:59.623Z,99136.72
2022-12-03T13:27:32.921Z,99134.16
2022-12-03T13:30:13.719Z,99128.59
2022-12-03T13:32:42.221Z,99139.41
2022-12-03T13:35:18.030Z,99134.13
2022-12-03T13:37:45.196Z,99133.53
2022-12-03T13:40:35.110Z,99134.38
2022-12-03T13:43:12.471Z,99131.84
2022-12-03T13:45:41.126Z,99129.38
2022-12-03T13:48:45.060Z,99137.41
2022-12-03T13:51:26.190Z,99138.50
2022-12-03T13:53:53.824Z,99135.16
2022-12-03T13:56:32.879Z,99143.25
2022-12-03T13:59:01.393Z,99151.88
2022-12-03T14:01:29.190Z,99151.78
2022-12-03T14:03:56.921Z,99148.25
2022-12-03T14:06:23.878Z,99146.44
2022-12-03T14:08:51.566Z,99150.00
2022-12-03T14:11:36.886Z,99156.94
2022-12-03T14:14:03.855Z,99151.16
2022-12-03T14:16:30.961Z,99156.59
2022-12-03T14:18:57.923Z,99146.63
2022-12-03T14:21:24.857Z,99147.19
2022-12-03T14:23:51.800Z,99148.41
2022-12-03T14:26:18.755Z,99150.34
2022-12-03T14:28:45.623Z,99154.56
2022-12-03T14:31:12.650Z,99151.13
2022-12-03T14:33:39.595Z,99153.41
2022-12-03T14:36:06.862Z,99143.38
2022-12-03T14:38:33.815Z,99148.47
2022-12-03T14:41:00.672Z,99148.91
2022-12-03T14:43:27.596Z,99149.56
2022-12-03T14:45:54.631Z,99161.69
2022-12-03T14:48:21.590Z,99150.84
2022-12-03T14:50:48.488Z,99153.38
2022-12-03T14:53:15.398Z,99157.66
2022-12-03T14:55:42.308Z,99161.09
2022-12-03T14:58:09.240Z,99155.41
2022-12-03T15:00:36.258Z,99166.09
2022-12-03T15:03:03.245Z,99166.94
2022-12-03T15:05:30.274Z,99162.53
2022-12-03T15:07:57.531Z,99168.97
2022-12-03T15:10:24.415Z,99175.00
2022-12-03T15:12:51.248Z,99173.25
2022-12-03T15:15:18.220Z,99179.28
2022-12-03T15:17:47.364Z,99180.25
2022-12-03T15:20:14.627Z,99174.28
2022-12-03T15:22:41.762Z,99173.25
2022-12-03T15:25:09.117Z,99171.56
2022-12-03T15:27:36.380Z,99167.28
2022-12-03T15:30:03.607Z,99171.56
2022-12-03T15:32:30.603Z,99171.69
2022-12-03T15:34:57.661Z,99174.94
2022-12-03T15:37:27.788Z,99182.00
2022-12-03T15:39:55.255Z,99182.91
2022-12-03T15:42:22.343Z,99181.09
2022-12-03T15:44:49.448Z,99189.69
2022-12-03T15:47:16.408Z,99185.34
2022-12-03T15:49:43.740Z,99193.97
2022-12-03T15:52:10.659Z,99195.53
2022-12-03T15:54:37.639Z,99199.38
2022-12-03T15:57:04.610Z,99196.97
2022-12-03T15:59:31.605Z,99196.09
2022-12-03T16:01:58.606Z,99192.22
2022-12-03T16:04:25.614Z,99191.44
2022-12-03T16:06:52.596Z,99201.06
2022-12-03T16:09:25.302Z,99200.13
2022-12-03T16:11:54.321Z,99203.13
2022-12-03T16:14:21.277Z,99207.22
2022-12-03T16:16:48.152Z,99205.47
2022-12-03T16:19:15.058Z,99213.25
2022-12-03T16:21:42.326Z,99208.31
2022-12-03T16:24:09.352Z,99211.91
2022-12-03T16:26:36.355Z,99219.50
2022-12-03T16:29:03.318Z,99218.97
2022-12-03T16:31:30.486Z,99210.38
2022-12-03T16:33:57.573Z,99215.56
2022-12-03T16:36:24.476Z,99206.94
2022-12-03T16:38:51.385Z,99211.31
2022-12-03T16:41:18.729Z,99217.31
2022-12-03T16:43:48.454Z,99219.06
2022-12-03T16:46:15.486Z,99218.47
2022-12-03T16:48:43.068Z,99224.78
2022-12-03T16:51:10.641Z,99220.75
2022-12-03T16:53:37.572Z,99223.22
2022-12-03T16:56:04.737Z,99227.47
2022-12-03T16:58:31.658Z,99233.84
2022-12-03T17:00:58.626Z,99232.72
2022-12-03T17:03:30.404Z,99232.72
2022-12-03T17:06:00.863Z,99241.66
2022-12-03T17:08:28.048Z,99239.81
2022-12-03T17:10:55.081Z,99236.66
2022-12-03T17:13:23.370Z,99233.19
2022-12-03T17:15:50.981Z,99234.31
2022-12-03T17:18:18.073Z,99242.16
2022-12-03T17:20:45.101Z,99233.56
2022-12-03T17:23:12.595Z,99235.25
2022-12-03T17:25:39.573Z,99240.47
2022-12-03T17:28:06.486Z,99242.25
2022-12-03T17:30:33.409Z,99243.16
2022-12-03T17:33:01.481Z,99248.34
2022-12-03T17:35:28.739Z,99243.28
2022-12-03T17:37:55.923Z,99248.34
2022-12-03T17:40:22.963Z,99257.00
2022-12-03T17:42:49.925Z,99246.81
2022-12-03T17:45:17.196Z,99249.56
2022-12-03T17:47:44.092Z,99253.06
2022-12-03T17:50:11.204Z,99254.72
2022-12-03T17:52:38.082Z,99263.63
2022-12-03T17:55:19.844Z,99269.69
2022-12-03T17:57:50.765Z,99263.84
2022-12-03T18:00:18.237Z,99271.13
2022-12-03T18:02:45.179Z,99271.13
2022-12-03T18:05:13.243Z,99270.41
2022-12-03T18:07:40.453Z,99267.81
2022-12-03T18:10:08.722Z,99276.56
2022-12-03T18:12:35.601Z,99263.63
2022-12-03T18:15:02.519Z,99265.38
2022-12-03T18:17:29.437Z,99275.03
2022-12-03T18:19:56.747Z,99273.16
2022-12-03T18:22:24.382Z,99271.53
2022-12-03T18:24:51.921Z,99274.81
2022-12-03T18:27:20.557Z,99280.91
2022-12-03T18:29:47.615Z,99275.94
2022-12-03T18:32:27.723Z,99278.53
2022-12-03T18:34:57.198Z,99286.41
2022-12-03T18:37:27.132Z,99278.88
2022-12-03T18:39:55.500Z,99285.03
2022-12-03T18:42:23.771Z,99286.63
2022-12-03T18:44:52.949Z,99285.72
2022-12-03T18:47:22.297Z,99287.53
2022-12-03T18:49:49.529Z,99288.38
2022-12-03T18:52:19.530Z,99282.56
2022-12-03T18:54:46.969Z,99287.53
2022-12-03T18:57:14.195Z,99283.22
2022-12-03T18:59:41.444Z,99292.84
2022-12-03T19:02:13.140Z,99288.22
2022-12-03T19:04:49.234Z,99290.97
2022-12-03T19:07:16.352Z,99287.47
2022-12-03T19:09:43.624Z,99283.34
2022-12-03T19:12:14.709Z,99290.41
2022-12-03T19:14:41.972Z,99293.56
2022-12-03T19:17:09.898Z,99294.38
2022-12-03T19:19:37.602Z,99286.72
2022-12-03T19:22:04.568Z,99294.53
2022-12-03T19:24:31.506Z,99285.78
2022-12-03T19:26:58.482Z,99288.50
2022-12-03T19:29:25.533Z,99292.78
2022-12-03T19:31:52.946Z,99292.78
2022-12-03T19:34:20.265Z,99291.78
2022-12-03T19:36:47.924Z,99296.16
2022-12-03T19:39:14.930Z,99292.69
2022-12-03T19:41:43.815Z,99287.34
2022-12-03T19:44:16.845Z,99300.38
2022-12-03T19:46:44.509Z,99301.22
2022-12-03T19:49:11.926Z,99300.53
2022-12-03T19:51:39.013Z,99290.19
2022-12-03T19:54:08.261Z,99290.19
2022-12-03T19:56:35.350Z,99295.50
2022-12-03T19:59:02.648Z,99294.53
2022-12-03T20:01:32.215Z,99291.34
2022-12-03T20:04:01.336Z,99277.53
2022-12-03T20:06:30.747Z,99291.28
2022-12-03T20:09:03.579Z,99280.84
2022-12-03T20:11:32.978Z,99293.75
2022-12-03T20:14:02.505Z,99294.78
2022-12-03T20:16:29.690Z,99296.53
2022-12-03T20:19:02.620Z,99301.69
2022-12-03T20:21:31.590Z,99292.06
2022-12-03T20:23:58.704Z,99309.34
2022-12-03T20:26:26.601Z,99297.38
2022-12-03T20:28:55.062Z,99297.31
2022-12-03T20:31:24.511Z,99296.41
2022-12-03T20:33:55.869Z,99305.16
2022-12-03T20:36:23.756Z,99297.38
2022-12-03T20:38:55.125Z,99304.34
2022-12-03T20:41:22.859Z,99301.69
2022-12-03T20:43:50.423Z,99300.16
2022-12-03T20:46:29.361Z,99305.31
2022-12-03T20:48:57.602Z,99302.81
2022-12-03T20:51:28.406Z,99296.16
2022-12-03T20:53:56.423Z,99303.84
2022-12-03T20:56:32.282Z,99297.00
2022-12-03T20:59:05.094Z,99297.69
2022-12-03T21:01:33.091Z,99303.00
2022-12-03T21:04:00.125Z,99302.94
2022-12-03T21:06:30.020Z,99304.75
2022-12-03T21:08:59.381Z,99307.28
2022-12-03T21:11:29.926Z,99302.06
2022-12-03T21:13:58.326Z,99296.16
2022-12-03T21:16:51.921Z,99305.47
2022-12-03T21:19:20.476Z,99303.91
2022-12-03T21:21:47.890Z,99304.81
2022-12-03T21:24:15.258Z,99311.81
2022-12-03T21:26:42.224Z,99302.38
2022-12-03T21:29:09.288Z,99311.81
2022-12-03T21:31:37.921Z,99302.38
2022-12-03T21:34:05.245Z,99305.69
2022-12-03T21:36:32.584Z,99309.03
2022-12-03T21:38:59.742Z,99311.66
2022-12-03T21:41:26.822Z,99311.84
2022-12-03T21:43:53.928Z,99307.53
2022-12-03T21:47:10.160Z,99310.97
2022-12-03T21:49:08.170Z,99304.13
2022-12-03T21:51:35.385Z,99306.88
2022-12-03T21:54:02.478Z,99304.97
2022-12-03T21:56:31.907Z,99307.66
2022-12-03T21:58:59.161Z,99301.72
2022-12-03T22:01:26.120Z,99296.63
2022-12-03T22:03:53.127Z,99296.63
2022-12-03T22:06:20.331Z,99292.44
2022-12-03T22:08:48.545Z,99302.75
2022-12-03T22:11:18.764Z,99300.09
2022-12-03T22:13:45.810Z,99295.84
2022-12-03T22:16:15.952Z,99287.13
2022-12-03T22:18:43.025Z,99292.44
2022-12-03T22:21:12.788Z,99282.94
2022-12-03T22:23:39.768Z,99285.59
2022-12-03T22:26:09.446Z,99282.22
2022-12-03T22:28:36.394Z,99287.38
2022-12-03T22:31:07.288Z,99283.84
2022-12-03T22:33:34.826Z,99292.44
2022-12-03T22:36:05.266Z,99289.84
2022-12-03T22:38:32.377Z,99281.41
2022-12-03T22:40:59.688Z,99288.28
2022-12-03T22:43:26.560Z,99301.91
2022-12-03T22:45:56.561Z,99301.75
2022-12-03T22:48:24.053Z,99296.50
2022-12-03T22:50:52.528Z,99297.38
2022-12-03T22:53:19.867Z,99294.81
2022-12-03T22:55:58.486Z,99294.81
2022-12-03T22:58:27.021Z,99298.31
2022-12-03T23:00:59.739Z,99299.22
2022-12-03T23:03:29.413Z,99303.28
2022-12-03T23:05:56.718Z,99302.31
2022-12-03T23:08:24.040Z,99299.78
2022-12-03T23:10:52.671Z,99300.50
2022-12-03T23:13:20.617Z,99295.50
2022-12-03T23:15:52.162Z,99299.72
2022-12-03T23:18:19.980Z,99293.91
2022-12-03T23:20:49.609Z,99296.50
2022-12-03T23:23:17.273Z,99292.94
2022-12-03T23:25:44.380Z,99302.31
2022-12-03T23:28:11.261Z,99308.31
2022-12-03T23:30:39.776Z,99304.94
2022-12-03T23:33:07.264Z,99297.34
2022-12-03T23:35:34.446Z,99293.78
2022-12-03T23:38:01.337Z,99290.22
2022-12-03T23:40:28.332Z,99288.47
2022-12-03T23:42:55.256Z,99298.09
2022-12-03T23:45:22.288Z,99292.81
2022-12-03T23:47:52.352Z,99299.72
2022-12-03T23:50:21.883Z,99297.13
2022-12-03T23:52:48.888Z,99284.28
2022-12-03T23:55:15.928Z,99292.94
2022-12-03T23:57:42.835Z,99287.06
